sensor_id;sensor_type;location;lat;lon;timestamp;P1;durP1;ratioP1;P2;durP2;ratioP2
295;SDS011;132;48.770;9.200;2022-12-18T00:00:15;80.68;;;31.02;;
295;SDS011;132;48.770;9.200;2022-12-18T00:03:01;75.47;;;31.05;;
295;SDS011;132;48.770;9.200;2022-12-18T00:05:49;84.78;;;31.02;;
295;SDS011;132;48.770;9.200;2022-12-18T00:08:37;82.68;;;32.03;;
295;SDS011;132;48.770;9.200;2022-12-18T00:11:29;77.00;;;30.00;;
295;SDS011;132;48.770;9.200;2022-12-18T00:14:16;81.45;;;30.05;;
295;SDS011;132;48.770;9.200;2022-12-18T00:17:03;78.63;;;30.27;;
295;SDS011;132;48.770;9.200;2022-12-18T00:19:50;78.10;;;31.23;;
295;SDS011;132;48.770;9.200;2022-12-18T00:22:37;74.30;;;30.00;;
295;SDS011;132;48.770;9.200;2022-12-18T00:25:23;69.95;;;28.10;;
295;SDS011;132;48.770;9.200;2022-12-18T00:28:10;70.53;;;28.35;;
295;SDS011;132;48.770;9.200;2022-12-18T00:31:04;73.72;;;31.52;;
295;SDS011;132;48.770;9.200;2022-12-18T00:33:55;70.60;;;28.02;;
295;SDS011;132;48.770;9.200;2022-12-18T00:36:42;71.43;;;27.88;;
295;SDS011;132;48.770;9.200;2022-12-18T00:39:29;78.60;;;30.20;;
295;SDS011;132;48.770;9.200;2022-12-18T00:42:16;81.28;;;31.80;;
295;SDS011;132;48.770;9.200;2022-12-18T00:45:25;75.90;;;29.30;;
295;SDS011;132;48.770;9.200;2022-12-18T00:48:12;83.65;;;30.67;;
295;SDS011;132;48.770;9.200;2022-12-18T00:50:59;76.38;;;29.05;;
295;SDS011;132;48.770;9.200;2022-12-18T00:53:45;70.75;;;26.30;;
295;SDS011;132;48.770;9.200;2022-12-18T00:56:32;70.50;;;28.95;;
295;SDS011;132;48.770;9.200;2022-12-18T00:59:21;75.07;;;28.88;;
295;SDS011;132;48.770;9.200;2022-12-18T01:02:08;74.97;;;28.38;;
295;SDS011;132;48.770;9.200;2022-12-18T01:04:54;72.03;;;28.50;;
295;SDS011;132;48.770;9.200;2022-12-18T01:07:41;72.20;;;27.52;;
295;SDS011;132;48.770;9.200;2022-12-18T01:10:27;73.35;;;25.48;;
295;SDS011;132;48.770;9.200;2022-12-18T01:13:17;66.50;;;27.08;;
295;SDS011;132;48.770;9.200;2022-12-18T01:16:03;71.03;;;27.38;;
295;SDS011;132;48.770;9.200;2022-12-18T01:18:51;73.82;;;28.48;;
295;SDS011;132;48.770;9.200;2022-12-18T01:21:39;74.28;;;28.23;;
295;SDS011;132;48.770;9.200;2022-12-18T01:24:26;86.50;;;28.33;;
295;SDS011;132;48.770;9.200;2022-12-18T01:27:13;66.68;;;26.63;;
295;SDS011;132;48.770;9.200;2022-12-18T01:30:00;73.95;;;26.88;;
295;SDS011;132;48.770;9.200;2022-12-18T01:32:47;68.38;;;26.42;;
295;SDS011;132;48.770;9.200;2022-12-18T01:35:39;71.25;;;27.58;;
295;SDS011;132;48.770;9.200;2022-12-18T01:38:27;69.43;;;25.45;;
295;SDS011;132;48.770;9.200;2022-12-18T01:41:15;67.97;;;25.58;;
295;SDS011;132;48.770;9.200;2022-12-18T01:44:46;65.10;;;25.70;;
295;SDS011;132;48.770;9.200;2022-12-18T01:47:49;73.20;;;27.25;;
295;SDS011;132;48.770;9.200;2022-12-18T01:50:40;69.20;;;26.88;;
295;SDS011;132;48.770;9.200;2022-12-18T01:53:30;67.07;;;25.02;;
295;SDS011;132;48.770;9.200;2022-12-18T01:56:18;64.85;;;26.67;;
295;SDS011;132;48.770;9.200;2022-12-18T01:59:07;76.15;;;28.45;;
295;SDS011;132;48.770;9.200;2022-12-18T02:01:56;62.38;;;26.15;;
295;SDS011;132;48.770;9.200;2022-12-18T02:04:43;70.03;;;26.70;;
295;SDS011;132;48.770;9.200;2022-12-18T02:08:13;69.78;;;28.77;;
295;SDS011;132;48.770;9.200;2022-12-18T02:27:04;63.25;;;26.30;;
295;SDS011;132;48.770;9.200;2022-12-18T02:29:53;72.43;;;27.48;;
295;SDS011;132;48.770;9.200;2022-12-18T02:32:45;65.70;;;25.67;;
295;SDS011;132;48.770;9.200;2022-12-18T02:35:36;67.40;;;26.40;;
295;SDS011;132;48.770;9.200;2022-12-18T02:38:27;66.38;;;25.25;;
295;SDS011;132;48.770;9.200;2022-12-18T02:41:20;65.55;;;27.20;;
295;SDS011;132;48.770;9.200;2022-12-18T02:44:12;65.38;;;24.75;;
295;SDS011;132;48.770;9.200;2022-12-18T02:47:01;61.35;;;24.52;;
295;SDS011;132;48.770;9.200;2022-12-18T02:56:07;68.32;;;26.13;;
295;SDS011;132;48.770;9.200;2022-12-18T02:59:02;70.30;;;24.52;;
295;SDS011;132;48.770;9.200;2022-12-18T03:02:05;65.25;;;24.92;;
295;SDS011;132;48.770;9.200;2022-12-18T03:05:28;58.28;;;22.00;;
295;SDS011;132;48.770;9.200;2022-12-18T03:08:39;62.30;;;23.80;;
295;SDS011;132;48.770;9.200;2022-12-18T03:11:31;57.47;;;22.40;;
295;SDS011;132;48.770;9.200;2022-12-18T03:14:39;58.47;;;21.75;;
295;SDS011;132;48.770;9.200;2022-12-18T03:17:30;64.05;;;23.75;;
295;SDS011;132;48.770;9.200;2022-12-18T03:20:19;56.63;;;22.90;;
295;SDS011;132;48.770;9.200;2022-12-18T03:23:11;57.30;;;23.02;;
295;SDS011;132;48.770;9.200;2022-12-18T03:26:07;63.80;;;23.30;;
295;SDS011;132;48.770;9.200;2022-12-18T03:29:07;57.42;;;22.80;;
295;SDS011;132;48.770;9.200;2022-12-18T03:32:00;55.60;;;22.52;;
295;SDS011;132;48.770;9.200;2022-12-18T03:34:52;56.88;;;23.55;;
295;SDS011;132;48.770;9.200;2022-12-18T03:37:43;60.08;;;23.25;;
295;SDS011;132;48.770;9.200;2022-12-18T03:40:32;60.38;;;22.73;;
295;SDS011;132;48.770;9.200;2022-12-18T03:52:19;60.20;;;22.65;;
295;SDS011;132;48.770;9.200;2022-12-18T03:55:10;58.55;;;23.45;;
295;SDS011;132;48.770;9.200;2022-12-18T03:57:59;58.15;;;22.38;;
295;SDS011;132;48.770;9.200;2022-12-18T04:00:59;61.50;;;23.65;;
295;SDS011;132;48.770;9.200;2022-12-18T04:03:49;55.08;;;21.30;;
295;SDS011;132;48.770;9.200;2022-12-18T04:06:39;58.80;;;23.20;;
295;SDS011;132;48.770;9.200;2022-12-18T04:09:30;58.20;;;23.55;;
295;SDS011;132;48.770;9.200;2022-12-18T04:12:19;65.35;;;23.85;;
295;SDS011;132;48.770;9.200;2022-12-18T04:15:08;59.70;;;23.52;;
295;SDS011;132;48.770;9.200;2022-12-18T04:17:56;64.35;;;25.58;;
295;SDS011;132;48.770;9.200;2022-12-18T04:20:47;68.63;;;25.00;;
295;SDS011;132;48.770;9.200;2022-12-18T04:23:34;67.50;;;24.65;;
295;SDS011;132;48.770;9.200;2022-12-18T04:26:22;58.58;;;22.10;;
295;SDS011;132;48.770;9.200;2022-12-18T04:29:23;58.08;;;23.55;;
295;SDS011;132;48.770;9.200;2022-12-18T04:32:09;64.93;;;23.25;;
295;SDS011;132;48.770;9.200;2022-12-18T04:34:57;54.70;;;22.90;;
295;SDS011;132;48.770;9.200;2022-12-18T04:37:44;56.58;;;22.25;;
295;SDS011;132;48.770;9.200;2022-12-18T04:40:30;61.33;;;22.20;;
295;SDS011;132;48.770;9.200;2022-12-18T04:43:17;62.47;;;23.75;;
295;SDS011;132;48.770;9.200;2022-12-18T04:46:07;51.97;;;21.63;;
295;SDS011;132;48.770;9.200;2022-12-18T04:48:54;57.38;;;23.33;;
295;SDS011;132;48.770;9.200;2022-12-18T04:51:41;60.65;;;22.50;;
295;SDS011;132;48.770;9.200;2022-12-18T04:54:30;72.03;;;25.38;;
295;SDS011;132;48.770;9.200;2022-12-18T04:57:17;58.72;;;22.63;;
295;SDS011;132;48.770;9.200;2022-12-18T05:00:04;57.20;;;22.90;;
295;SDS011;132;48.770;9.200;2022-12-18T05:02:52;55.33;;;21.20;;
295;SDS011;132;48.770;9.200;2022-12-18T05:05:38;59.13;;;22.13;;
295;SDS011;132;48.770;9.200;2022-12-18T05:08:25;63.03;;;23.30;;
295;SDS011;132;48.770;9.200;2022-12-18T05:11:12;53.83;;;21.48;;
295;SDS011;132;48.770;9.200;2022-12-18T05:14:03;56.13;;;23.80;;
295;SDS011;132;48.770;9.200;2022-12-18T05:16:50;67.90;;;23.90;;
295;SDS011;132;48.770;9.200;2022-12-18T05:19:37;64.18;;;24.23;;
295;SDS011;132;48.770;9.200;2022-12-18T05:37:18;61.55;;;23.92;;
295;SDS011;132;48.770;9.200;2022-12-18T05:40:07;59.72;;;22.85;;
295;SDS011;132;48.770;9.200;2022-12-18T05:42:54;61.53;;;24.65;;
295;SDS011;132;48.770;9.200;2022-12-18T05:45:41;54.90;;;21.05;;
295;SDS011;132;48.770;9.200;2022-12-18T05:51:40;58.38;;;22.35;;
295;SDS011;132;48.770;9.200;2022-12-18T05:54:28;61.47;;;23.63;;
295;SDS011;132;48.770;9.200;2022-12-18T05:57:19;58.30;;;23.25;;
295;SDS011;132;48.770;9.200;2022-12-18T06:02:56;54.55;;;21.42;;
295;SDS011;132;48.770;9.200;2022-12-18T06:05:44;56.78;;;21.05;;
295;SDS011;132;48.770;9.200;2022-12-18T06:08:31;55.42;;;21.98;;
295;SDS011;132;48.770;9.200;2022-12-18T06:11:20;51.95;;;22.02;;
295;SDS011;132;48.770;9.200;2022-12-18T06:17:04;61.53;;;22.20;;
295;SDS011;132;48.770;9.200;2022-12-18T06:19:58;52.63;;;20.63;;
295;SDS011;132;48.770;9.200;2022-12-18T06:25:37;54.92;;;22.30;;
295;SDS011;132;48.770;9.200;2022-12-18T06:28:24;56.25;;;21.75;;
295;SDS011;132;48.770;9.200;2022-12-18T06:31:11;63.30;;;23.88;;
295;SDS011;132;48.770;9.200;2022-12-18T06:36:51;55.17;;;20.95;;
295;SDS011;132;48.770;9.200;2022-12-18T06:39:38;61.45;;;23.35;;
295;SDS011;132;48.770;9.200;2022-12-18T06:45:20;51.78;;;21.02;;
295;SDS011;132;48.770;9.200;2022-12-18T06:51:03;50.47;;;20.50;;
295;SDS011;132;48.770;9.200;2022-12-18T06:53:51;52.42;;;18.63;;
295;SDS011;132;48.770;9.200;2022-12-18T06:56:38;55.25;;;22.10;;
295;SDS011;132;48.770;9.200;2022-12-18T06:59:25;51.92;;;21.25;;
295;SDS011;132;48.770;9.200;2022-12-18T07:02:12;55.35;;;20.95;;
295;SDS011;132;48.770;9.200;2022-12-18T07:19:19;52.90;;;20.80;;
295;SDS011;132;48.770;9.200;2022-12-18T07:31:06;49.20;;;20.42;;
295;SDS011;132;48.770;9.200;2022-12-18T07:36:52;55.80;;;22.27;;
295;SDS011;132;48.770;9.200;2022-12-18T07:42:36;49.75;;;19.63;;
295;SDS011;132;48.770;9.200;2022-12-18T07:59:29;51.72;;;20.30;;
295;SDS011;132;48.770;9.200;2022-12-18T08:05:12;59.90;;;21.70;;
295;SDS011;132;48.770;9.200;2022-12-18T08:07:59;49.83;;;19.92;;
295;SDS011;132;48.770;9.200;2022-12-18T08:10:47;51.75;;;19.27;;
295;SDS011;132;48.770;9.200;2022-12-18T08:16:27;48.38;;;19.83;;
295;SDS011;132;48.770;9.200;2022-12-18T08:25:13;45.90;;;18.83;;
295;SDS011;132;48.770;9.200;2022-12-18T08:36:48;49.88;;;20.73;;
295;SDS011;132;48.770;9.200;2022-12-18T08:42:55;49.05;;;19.40;;
295;SDS011;132;48.770;9.200;2022-12-18T09:07:36;52.40;;;21.23;;
295;SDS011;132;48.770;9.200;2022-12-18T09:10:23;54.70;;;22.00;;
295;SDS011;132;48.770;9.200;2022-12-18T09:13:11;53.25;;;22.83;;
295;SDS011;132;48.770;9.200;2022-12-18T09:16:02;58.30;;;23.35;;
295;SDS011;132;48.770;9.200;2022-12-18T09:18:49;53.10;;;22.50;;
295;SDS011;132;48.770;9.200;2022-12-18T09:21:37;61.40;;;24.77;;
295;SDS011;132;48.770;9.200;2022-12-18T09:24:24;66.38;;;27.67;;
295;SDS011;132;48.770;9.200;2022-12-18T09:27:11;65.55;;;27.33;;
295;SDS011;132;48.770;9.200;2022-12-18T09:29:58;66.60;;;27.13;;
295;SDS011;132;48.770;9.200;2022-12-18T09:32:45;66.70;;;28.35;;
295;SDS011;132;48.770;9.200;2022-12-18T09:35:31;62.60;;;25.75;;
295;SDS011;132;48.770;9.200;2022-12-18T09:38:18;71.07;;;27.63;;
295;SDS011;132;48.770;9.200;2022-12-18T09:44:03;69.25;;;27.20;;
295;SDS011;132;48.770;9.200;2022-12-18T09:47:11;63.35;;;25.48;;
295;SDS011;132;48.770;9.200;2022-12-18T09:50:23;64.55;;;26.05;;
295;SDS011;132;48.770;9.200;2022-12-18T09:53:22;60.33;;;24.73;;
295;SDS011;132;48.770;9.200;2022-12-18T09:56:16;61.28;;;24.48;;
295;SDS011;132;48.770;9.200;2022-12-18T09:59:04;64.88;;;24.30;;
295;SDS011;132;48.770;9.200;2022-12-18T10:01:51;62.83;;;25.42;;
295;SDS011;132;48.770;9.200;2022-12-18T10:04:38;60.45;;;23.80;;
295;SDS011;132;48.770;9.200;2022-12-18T10:07:28;62.17;;;24.92;;
295;SDS011;132;48.770;9.200;2022-12-18T10:10:43;62.53;;;23.52;;
295;SDS011;132;48.770;9.200;2022-12-18T10:13:55;58.83;;;23.90;;
295;SDS011;132;48.770;9.200;2022-12-18T10:17:02;62.80;;;24.45;;
295;SDS011;132;48.770;9.200;2022-12-18T10:20:32;66.85;;;26.48;;
295;SDS011;132;48.770;9.200;2022-12-18T10:27:36;66.40;;;24.50;;
295;SDS011;132;48.770;9.200;2022-12-18T10:30:18;59.58;;;23.60;;
295;SDS011;132;48.770;9.200;2022-12-18T10:33:16;64.70;;;27.38;;
295;SDS011;132;48.770;9.200;2022-12-18T10:36:05;60.38;;;22.88;;
295;SDS011;132;48.770;9.200;2022-12-18T10:38:52;55.95;;;22.75;;
295;SDS011;132;48.770;9.200;2022-12-18T10:41:39;54.83;;;22.90;;
295;SDS011;132;48.770;9.200;2022-12-18T10:44:26;54.33;;;23.40;;
295;SDS011;132;48.770;9.200;2022-12-18T10:47:15;66.90;;;24.35;;
295;SDS011;132;48.770;9.200;2022-12-18T10:50:04;61.83;;;24.92;;
295;SDS011;132;48.770;9.200;2022-12-18T10:53:03;52.95;;;21.05;;
295;SDS011;132;48.770;9.200;2022-12-18T10:55:52;61.85;;;23.15;;
295;SDS011;132;48.770;9.200;2022-12-18T10:58:41;57.08;;;23.67;;
295;SDS011;132;48.770;9.200;2022-12-18T11:01:28;62.53;;;21.58;;
295;SDS011;132;48.770;9.200;2022-12-18T11:04:35;59.10;;;23.73;;
295;SDS011;132;48.770;9.200;2022-12-18T11:07:47;59.60;;;22.65;;
295;SDS011;132;48.770;9.200;2022-12-18T11:10:36;54.30;;;22.27;;
295;SDS011;132;48.770;9.200;2022-12-18T11:13:26;56.50;;;23.10;;
295;SDS011;132;48.770;9.200;2022-12-18T11:16:19;57.72;;;23.63;;
295;SDS011;132;48.770;9.200;2022-12-18T11:19:11;64.47;;;26.95;;
295;SDS011;132;48.770;9.200;2022-12-18T11:22:19;65.07;;;27.38;;
295;SDS011;132;48.770;9.200;2022-12-18T11:25:18;62.58;;;25.25;;
295;SDS011;132;48.770;9.200;2022-12-18T11:28:24;62.60;;;24.80;;
295;SDS011;132;48.770;9.200;2022-12-18T11:31:18;53.30;;;20.98;;
295;SDS011;132;48.770;9.200;2022-12-18T11:34:21;48.05;;;19.33;;
295;SDS011;132;48.770;9.200;2022-12-18T11:37:15;54.75;;;20.88;;
295;SDS011;132;48.770;9.200;2022-12-18T11:40:27;56.90;;;21.63;;
295;SDS011;132;48.770;9.200;2022-12-18T11:43:27;57.53;;;21.55;;
295;SDS011;132;48.770;9.200;2022-12-18T11:46:29;47.22;;;18.67;;
295;SDS011;132;48.770;9.200;2022-12-18T11:49:22;50.72;;;19.88;;
295;SDS011;132;48.770;9.200;2022-12-18T11:52:27;52.58;;;20.42;;
295;SDS011;132;48.770;9.200;2022-12-18T11:55:25;46.47;;;19.88;;
295;SDS011;132;48.770;9.200;2022-12-18T12:04:22;51.97;;;18.85;;
295;SDS011;132;48.770;9.200;2022-12-18T12:13:25;50.47;;;20.40;;
295;SDS011;132;48.770;9.200;2022-12-18T12:25:52;55.88;;;21.25;;
295;SDS011;132;48.770;9.200;2022-12-18T12:28:51;51.78;;;21.88;;
295;SDS011;132;48.770;9.200;2022-12-18T12:38:19;51.60;;;21.95;;
295;SDS011;132;48.770;9.200;2022-12-18T12:41:14;52.10;;;20.70;;
295;SDS011;132;48.770;9.200;2022-12-18T12:47:48;54.25;;;21.85;;
295;SDS011;132;48.770;9.200;2022-12-18T12:50:38;53.20;;;20.98;;
295;SDS011;132;48.770;9.200;2022-12-18T12:53:27;55.33;;;22.50;;
295;SDS011;132;48.770;9.200;2022-12-18T12:56:19;46.83;;;20.05;;
295;SDS011;132;48.770;9.200;2022-12-18T12:59:13;48.55;;;20.98;;
295;SDS011;132;48.770;9.200;2022-12-18T13:02:14;53.00;;;19.65;;
295;SDS011;132;48.770;9.200;2022-12-18T13:05:25;55.47;;;22.30;;
295;SDS011;132;48.770;9.200;2022-12-18T13:08:27;55.67;;;22.25;;
295;SDS011;132;48.770;9.200;2022-12-18T13:11:29;50.72;;;22.48;;
295;SDS011;132;48.770;9.200;2022-12-18T13:14:39;55.88;;;22.35;;
295;SDS011;132;48.770;9.200;2022-12-18T13:17:28;50.95;;;20.65;;
295;SDS011;132;48.770;9.200;2022-12-18T13:20:16;58.40;;;22.48;;
295;SDS011;132;48.770;9.200;2022-12-18T13:29:04;55.65;;;21.30;;
295;SDS011;132;48.770;9.200;2022-12-18T13:34:38;55.85;;;20.60;;
295;SDS011;132;48.770;9.200;2022-12-18T13:40:50;51.40;;;22.27;;
295;SDS011;132;48.770;9.200;2022-12-18T13:43:55;54.72;;;21.98;;
295;SDS011;132;48.770;9.200;2022-12-18T13:46:47;55.10;;;21.30;;
295;SDS011;132;48.770;9.200;2022-12-18T13:49:39;54.42;;;22.60;;
295;SDS011;132;48.770;9.200;2022-12-18T13:52:33;62.42;;;23.83;;
295;SDS011;132;48.770;9.200;2022-12-18T13:55:26;52.63;;;21.33;;
295;SDS011;132;48.770;9.200;2022-12-18T13:58:13;56.70;;;23.27;;
295;SDS011;132;48.770;9.200;2022-12-18T14:01:00;58.33;;;21.90;;
295;SDS011;132;48.770;9.200;2022-12-18T14:04:06;51.28;;;20.60;;
295;SDS011;132;48.770;9.200;2022-12-18T14:07:03;55.13;;;22.88;;
295;SDS011;132;48.770;9.200;2022-12-18T14:10:01;54.65;;;21.75;;
295;SDS011;132;48.770;9.200;2022-12-18T14:12:49;51.75;;;21.52;;
295;SDS011;132;48.770;9.200;2022-12-18T14:15:43;59.65;;;23.20;;
295;SDS011;132;48.770;9.200;2022-12-18T14:21:26;54.83;;;21.77;;
295;SDS011;132;48.770;9.200;2022-12-18T14:24:16;63.33;;;25.00;;
295;SDS011;132;48.770;9.200;2022-12-18T14:27:12;53.92;;;22.70;;
295;SDS011;132;48.770;9.200;2022-12-18T14:30:26;63.75;;;25.77;;
295;SDS011;132;48.770;9.200;2022-12-18T14:36:03;59.97;;;23.13;;
295;SDS011;132;48.770;9.200;2022-12-18T14:38:52;60.90;;;25.33;;
295;SDS011;132;48.770;9.200;2022-12-18T14:41:40;61.92;;;25.05;;
295;SDS011;132;48.770;9.200;2022-12-18T14:44:27;68.15;;;26.05;;
295;SDS011;132;48.770;9.200;2022-12-18T14:47:14;53.47;;;20.88;;
295;SDS011;132;48.770;9.200;2022-12-18T14:50:02;71.97;;;25.65;;
295;SDS011;132;48.770;9.200;2022-12-18T14:52:49;60.35;;;25.05;;
295;SDS011;132;48.770;9.200;2022-12-18T14:55:36;63.53;;;25.02;;
295;SDS011;132;48.770;9.200;2022-12-18T15:01:34;57.97;;;22.40;;
295;SDS011;132;48.770;9.200;2022-12-18T15:04:26;65.93;;;24.40;;
295;SDS011;132;48.770;9.200;2022-12-18T15:13:05;62.10;;;24.05;;
295;SDS011;132;48.770;9.200;2022-12-18T15:15:54;70.40;;;25.40;;
295;SDS011;132;48.770;9.200;2022-12-18T15:18:44;66.95;;;25.55;;
295;SDS011;132;48.770;9.200;2022-12-18T15:21:33;60.25;;;24.75;;
295;SDS011;132;48.770;9.200;2022-12-18T15:24:23;61.15;;;25.15;;
295;SDS011;132;48.770;9.200;2022-12-18T15:27:32;70.00;;;26.92;;
295;SDS011;132;48.770;9.200;2022-12-18T15:30:22;68.55;;;27.05;;
295;SDS011;132;48.770;9.200;2022-12-18T15:33:22;64.72;;;26.02;;
295;SDS011;132;48.770;9.200;2022-12-18T15:36:14;67.20;;;27.08;;
295;SDS011;132;48.770;9.200;2022-12-18T15:39:02;70.13;;;27.38;;
295;SDS011;132;48.770;9.200;2022-12-18T15:41:49;68.82;;;26.83;;
295;SDS011;132;48.770;9.200;2022-12-18T15:44:55;68.40;;;26.55;;
295;SDS011;132;48.770;9.200;2022-12-18T15:47:41;65.57;;;25.98;;
295;SDS011;132;48.770;9.200;2022-12-18T15:50:28;69.55;;;26.52;;
295;SDS011;132;48.770;9.200;2022-12-18T15:53:15;68.90;;;25.60;;
295;SDS011;132;48.770;9.200;2022-12-18T15:56:01;62.30;;;25.30;;
295;SDS011;132;48.770;9.200;2022-12-18T15:59:11;70.70;;;27.45;;
295;SDS011;132;48.770;9.200;2022-12-18T16:02:00;74.22;;;27.85;;
295;SDS011;132;48.770;9.200;2022-12-18T16:04:47;73.30;;;28.25;;
295;SDS011;132;48.770;9.200;2022-12-18T16:07:34;70.80;;;28.15;;
295;SDS011;132;48.770;9.200;2022-12-18T16:10:21;69.40;;;26.88;;
295;SDS011;132;48.770;9.200;2022-12-18T16:13:11;77.28;;;28.35;;
295;SDS011;132;48.770;9.200;2022-12-18T16:16:01;71.53;;;28.20;;
295;SDS011;132;48.770;9.200;2022-12-18T16:18:48;77.35;;;29.75;;
295;SDS011;132;48.770;9.200;2022-12-18T16:21:35;67.80;;;26.90;;
295;SDS011;132;48.770;9.200;2022-12-18T16:24:22;67.38;;;27.33;;
295;SDS011;132;48.770;9.200;2022-12-18T16:27:11;65.15;;;24.70;;
295;SDS011;132;48.770;9.200;2022-12-18T16:29:58;70.00;;;27.83;;
295;SDS011;132;48.770;9.200;2022-12-18T16:32:44;69.45;;;27.48;;
295;SDS011;132;48.770;9.200;2022-12-18T16:35:31;68.97;;;25.50;;
295;SDS011;132;48.770;9.200;2022-12-18T16:38:18;77.22;;;28.83;;
295;SDS011;132;48.770;9.200;2022-12-18T16:41:16;72.75;;;26.85;;
295;SDS011;132;48.770;9.200;2022-12-18T16:44:17;78.97;;;29.45;;
295;SDS011;132;48.770;9.200;2022-12-18T16:47:04;84.32;;;31.05;;
295;SDS011;132;48.770;9.200;2022-12-18T16:49:50;71.40;;;28.83;;
295;SDS011;132;48.770;9.200;2022-12-18T16:52:38;76.50;;;28.80;;
295;SDS011;132;48.770;9.200;2022-12-18T16:55:25;74.30;;;29.40;;
295;SDS011;132;48.770;9.200;2022-12-18T16:58:12;83.07;;;29.73;;
295;SDS011;132;48.770;9.200;2022-12-18T17:00:58;81.55;;;30.92;;
295;SDS011;132;48.770;9.200;2022-12-18T17:04:03;74.60;;;29.55;;
295;SDS011;132;48.770;9.200;2022-12-18T17:06:51;66.70;;;26.10;;
295;SDS011;132;48.770;9.200;2022-12-18T17:09:39;72.63;;;28.83;;
295;SDS011;132;48.770;9.200;2022-12-18T17:12:26;71.85;;;28.13;;
295;SDS011;132;48.770;9.200;2022-12-18T17:15:12;71.43;;;30.67;;
295;SDS011;132;48.770;9.200;2022-12-18T17:17:59;80.57;;;29.23;;
295;SDS011;132;48.770;9.200;2022-12-18T17:20:45;78.60;;;31.25;;
295;SDS011;132;48.770;9.200;2022-12-18T17:23:32;79.97;;;29.20;;
295;SDS011;132;48.770;9.200;2022-12-18T17:26:19;87.85;;;31.17;;
295;SDS011;132;48.770;9.200;2022-12-18T17:29:05;67.53;;;27.05;;
295;SDS011;132;48.770;9.200;2022-12-18T17:31:52;81.00;;;29.88;;
295;SDS011;132;48.770;9.200;2022-12-18T17:34:39;80.38;;;30.77;;
295;SDS011;132;48.770;9.200;2022-12-18T17:37:26;79.90;;;30.73;;
295;SDS011;132;48.770;9.200;2022-12-18T17:40:12;72.38;;;30.17;;
295;SDS011;132;48.770;9.200;2022-12-18T17:42:59;77.78;;;31.80;;
295;SDS011;132;48.770;9.200;2022-12-18T17:45:45;88.03;;;32.00;;
295;SDS011;132;48.770;9.200;2022-12-18T17:48:32;65.88;;;27.75;;
295;SDS011;132;48.770;9.200;2022-12-18T17:51:19;72.07;;;29.80;;
295;SDS011;132;48.770;9.200;2022-12-18T17:54:06;80.28;;;29.80;;
295;SDS011;132;48.770;9.200;2022-12-18T17:56:53;76.25;;;29.10;;
295;SDS011;132;48.770;9.200;2022-12-18T17:59:39;73.15;;;29.50;;
295;SDS011;132;48.770;9.200;2022-12-18T18:02:26;67.32;;;28.17;;
295;SDS011;132;48.770;9.200;2022-12-18T18:05:13;68.50;;;28.00;;
295;SDS011;132;48.770;9.200;2022-12-18T18:07:59;64.50;;;25.77;;
295;SDS011;132;48.770;9.200;2022-12-18T18:10:46;63.78;;;27.20;;
295;SDS011;132;48.770;9.200;2022-12-18T18:13:34;69.53;;;28.92;;
295;SDS011;132;48.770;9.200;2022-12-18T18:16:40;70.10;;;28.67;;
295;SDS011;132;48.770;9.200;2022-12-18T18:19:28;69.93;;;27.75;;
295;SDS011;132;48.770;9.200;2022-12-18T18:22:15;68.00;;;26.95;;
295;SDS011;132;48.770;9.200;2022-12-18T18:25:04;67.07;;;27.55;;
295;SDS011;132;48.770;9.200;2022-12-18T18:27:50;67.50;;;27.42;;
295;SDS011;132;48.770;9.200;2022-12-18T18:30:37;68.85;;;27.42;;
295;SDS011;132;48.770;9.200;2022-12-18T18:33:24;66.65;;;25.20;;
295;SDS011;132;48.770;9.200;2022-12-18T18:44:38;69.70;;;26.65;;
295;SDS011;132;48.770;9.200;2022-12-18T18:47:30;60.35;;;24.65;;
295;SDS011;132;48.770;9.200;2022-12-18T18:50:17;57.58;;;23.23;;
295;SDS011;132;48.770;9.200;2022-12-18T18:53:07;64.28;;;25.15;;
295;SDS011;132;48.770;9.200;2022-12-18T18:55:56;59.08;;;23.45;;
295;SDS011;132;48.770;9.200;2022-12-18T19:03:08;60.55;;;23.63;;
295;SDS011;132;48.770;9.200;2022-12-18T19:05:59;60.65;;;23.83;;
295;SDS011;132;48.770;9.200;2022-12-18T19:08:48;59.92;;;23.52;;
295;SDS011;132;48.770;9.200;2022-12-18T19:11:37;60.38;;;24.48;;
295;SDS011;132;48.770;9.200;2022-12-18T19:15:43;51.50;;;21.63;;
295;SDS011;132;48.770;9.200;2022-12-18T19:18:40;55.47;;;21.80;;
295;SDS011;132;48.770;9.200;2022-12-18T19:21:27;56.08;;;21.40;;
295;SDS011;132;48.770;9.200;2022-12-18T19:24:13;59.15;;;22.15;;
295;SDS011;132;48.770;9.200;2022-12-18T19:27:00;61.08;;;23.02;;
295;SDS011;132;48.770;9.200;2022-12-18T19:29:53;58.55;;;22.65;;
295;SDS011;132;48.770;9.200;2022-12-18T19:32:57;65.82;;;25.65;;
295;SDS011;132;48.770;9.200;2022-12-18T19:36:26;59.38;;;25.05;;
295;SDS011;132;48.770;9.200;2022-12-18T19:43:56;60.75;;;23.80;;
295;SDS011;132;48.770;9.200;2022-12-18T19:46:44;64.75;;;24.98;;
295;SDS011;132;48.770;9.200;2022-12-18T19:53:07;62.15;;;23.67;;
295;SDS011;132;48.770;9.200;2022-12-18T20:01:45;56.75;;;22.77;;
295;SDS011;132;48.770;9.200;2022-12-18T20:04:32;59.72;;;23.90;;
295;SDS011;132;48.770;9.200;2022-12-18T20:07:19;66.90;;;24.65;;
295;SDS011;132;48.770;9.200;2022-12-18T20:10:07;66.38;;;25.13;;
295;SDS011;132;48.770;9.200;2022-12-18T20:13:03;73.57;;;25.85;;
295;SDS011;132;48.770;9.200;2022-12-18T20:15:49;55.67;;;21.20;;
295;SDS011;132;48.770;9.200;2022-12-18T20:18:37;57.00;;;23.45;;
295;SDS011;132;48.770;9.200;2022-12-18T20:25:40;71.65;;;27.92;;
295;SDS011;132;48.770;9.200;2022-12-18T20:28:27;59.55;;;23.45;;
295;SDS011;132;48.770;9.200;2022-12-18T20:31:14;72.43;;;28.05;;
295;SDS011;132;48.770;9.200;2022-12-18T21:34:16;53.85;;;21.00;;
295;SDS011;132;48.770;9.200;2022-12-18T21:37:11;61.90;;;25.17;;
295;SDS011;132;48.770;9.200;2022-12-18T21:39:57;66.80;;;25.15;;
295;SDS011;132;48.770;9.200;2022-12-18T21:50:45;62.70;;;23.67;;
295;SDS011;132;48.770;9.200;2022-12-18T21:53:31;60.53;;;23.20;;
295;SDS011;132;48.770;9.200;2022-12-18T22:04:49;70.93;;;26.73;;
295;SDS011;132;48.770;9.200;2022-12-18T22:07:35;65.80;;;26.13;;
295;SDS011;132;48.770;9.200;2022-12-18T22:10:22;63.35;;;25.60;;
295;SDS011;132;48.770;9.200;2022-12-18T22:13:13;57.95;;;22.75;;
295;SDS011;132;48.770;9.200;2022-12-18T22:16:04;64.00;;;24.85;;
295;SDS011;132;48.770;9.200;2022-12-18T22:18:55;68.60;;;26.77;;
295;SDS011;132;48.770;9.200;2022-12-18T22:21:43;58.35;;;24.95;;
295;SDS011;132;48.770;9.200;2022-12-18T22:24:31;70.35;;;27.10;;
295;SDS011;132;48.770;9.200;2022-12-18T22:27:18;63.92;;;27.02;;
295;SDS011;132;48.770;9.200;2022-12-18T22:30:05;69.97;;;27.30;;
295;SDS011;132;48.770;9.200;2022-12-18T22:32:56;72.45;;;27.65;;
295;SDS011;132;48.770;9.200;2022-12-18T22:35:43;67.90;;;26.65;;
295;SDS011;132;48.770;9.200;2022-12-18T22:39:25;57.83;;;24.42;;
295;SDS011;132;48.770;9.200;2022-12-18T22:42:13;64.78;;;26.08;;
295;SDS011;132;48.770;9.200;2022-12-18T22:45:00;61.10;;;23.77;;
295;SDS011;132;48.770;9.200;2022-12-18T22:47:47;69.88;;;25.23;;
295;SDS011;132;48.770;9.200;2022-12-18T22:50:34;69.93;;;25.50;;
295;SDS011;132;48.770;9.200;2022-12-18T22:53:20;63.05;;;25.83;;
295;SDS011;132;48.770;9.200;2022-12-18T22:56:07;57.55;;;24.25;;
295;SDS011;132;48.770;9.200;2022-12-18T22:58:54;61.20;;;25.13;;
295;SDS011;132;48.770;9.200;2022-12-18T23:01:44;57.65;;;23.33;;
295;SDS011;132;48.770;9.200;2022-12-18T23:04:31;61.05;;;26.10;;
295;SDS011;132;48.770;9.200;2022-12-18T23:07:20;55.70;;;23.25;;
295;SDS011;132;48.770;9.200;2022-12-18T23:10:07;64.13;;;26.83;;
295;SDS011;132;48.770;9.200;2022-12-18T23:12:54;66.25;;;26.50;;